Gypsy, Kentucky
Current Conditions -  °F | °C
As of 3:55 AM on Friday 28 Nov 2014 (Local Time) from KSJS Reporting Station
Overcast Overcast  
Wind Chill: 24°   Ceiling: 3800
Heat Index: 29°   Visibility: 10mi
Dew Point: 22°   Wind: 5mph
Humidity: 76%   Direction: 290°WNW
Pressure: 30.35"   Gusts: NA
Location:  37.6421°N, 82.9499°W
Report Text: KSJS 280855Z AUTO 29004KT 10SM SCT021 OVC038 M01/M05 A3035 RMK AO2 T10151053
Loading
Personal Weather Stations






























Interactive Weather Map New forecast layout! Learn more

10-Day Weather Forecast

Advertisements
Track Severe Weather on mobile